sensor_id;sensor_type;location;lat;lon;timestamp;P1;durP1;ratioP1;P2;durP2;ratioP2
8466;SDS011;4270;48.148;11.648;2022-12-18T00:01:02;42.43;;;16.40;;
8466;SDS011;4270;48.148;11.648;2022-12-18T00:03:31;46.27;;;19.13;;
8466;SDS011;4270;48.148;11.648;2022-12-18T00:05:56;43.50;;;18.10;;
8466;SDS011;4270;48.148;11.648;2022-12-18T00:08:21;42.90;;;17.37;;
8466;SDS011;4270;48.148;11.648;2022-12-18T00:10:46;46.30;;;19.33;;
8466;SDS011;4270;48.148;11.648;2022-12-18T00:13:11;49.10;;;18.60;;
8466;SDS011;4270;48.148;11.648;2022-12-18T00:15:37;40.87;;;17.37;;
8466;SDS011;4270;48.148;11.648;2022-12-18T00:18:03;41.83;;;17.17;;
8466;SDS011;4270;48.148;11.648;2022-12-18T00:20:28;45.80;;;17.77;;
8466;SDS011;4270;48.148;11.648;2022-12-18T00:22:53;41.53;;;17.23;;
8466;SDS011;4270;48.148;11.648;2022-12-18T00:25:19;41.10;;;17.40;;
8466;SDS011;4270;48.148;11.648;2022-12-18T00:27:44;40.80;;;16.50;;
8466;SDS011;4270;48.148;11.648;2022-12-18T00:30:09;43.50;;;18.63;;
8466;SDS011;4270;48.148;11.648;2022-12-18T00:32:34;43.93;;;18.07;;
8466;SDS011;4270;48.148;11.648;2022-12-18T00:35:00;35.10;;;13.83;;
8466;SDS011;4270;48.148;11.648;2022-12-18T00:37:25;39.63;;;15.23;;
8466;SDS011;4270;48.148;11.648;2022-12-18T00:39:50;41.73;;;15.07;;
8466;SDS011;4270;48.148;11.648;2022-12-18T00:42:15;39.60;;;15.10;;
8466;SDS011;4270;48.148;11.648;2022-12-18T00:44:59;37.60;;;13.87;;
8466;SDS011;4270;48.148;11.648;2022-12-18T00:47:24;40.57;;;14.40;;
8466;SDS011;4270;48.148;11.648;2022-12-18T00:49:49;29.00;;;12.57;;
8466;SDS011;4270;48.148;11.648;2022-12-18T00:52:15;32.23;;;12.97;;
8466;SDS011;4270;48.148;11.648;2022-12-18T00:54:40;25.37;;;12.20;;
8466;SDS011;4270;48.148;11.648;2022-12-18T00:57:05;36.10;;;14.23;;
8466;SDS011;4270;48.148;11.648;2022-12-18T00:59:30;35.83;;;14.03;;
8466;SDS011;4270;48.148;11.648;2022-12-18T01:01:55;38.07;;;15.37;;
8466;SDS011;4270;48.148;11.648;2022-12-18T01:04:20;32.60;;;14.10;;
8466;SDS011;4270;48.148;11.648;2022-12-18T01:06:46;36.90;;;15.13;;
8466;SDS011;4270;48.148;11.648;2022-12-18T01:09:11;29.90;;;13.60;;
8466;SDS011;4270;48.148;11.648;2022-12-18T01:11:36;33.97;;;14.57;;
8466;SDS011;4270;48.148;11.648;2022-12-18T01:14:01;39.30;;;16.57;;
8466;SDS011;4270;48.148;11.648;2022-12-18T01:16:27;35.43;;;14.47;;
8466;SDS011;4270;48.148;11.648;2022-12-18T01:18:53;42.70;;;17.17;;
8466;SDS011;4270;48.148;11.648;2022-12-18T01:21:19;42.47;;;15.07;;
8466;SDS011;4270;48.148;11.648;2022-12-18T01:23:44;43.97;;;18.13;;
8466;SDS011;4270;48.148;11.648;2022-12-18T01:26:10;38.00;;;17.30;;
8466;SDS011;4270;48.148;11.648;2022-12-18T01:28:36;43.77;;;18.50;;
8466;SDS011;4270;48.148;11.648;2022-12-18T01:33:36;36.67;;;15.83;;
8466;SDS011;4270;48.148;11.648;2022-12-18T01:36:01;37.33;;;16.13;;
8466;SDS011;4270;48.148;11.648;2022-12-18T01:38:28;35.37;;;16.53;;
8466;SDS011;4270;48.148;11.648;2022-12-18T01:40:57;50.00;;;17.40;;
8466;SDS011;4270;48.148;11.648;2022-12-18T01:43:22;38.07;;;17.00;;
8466;SDS011;4270;48.148;11.648;2022-12-18T01:45:47;47.80;;;19.20;;
8466;SDS011;4270;48.148;11.648;2022-12-18T01:48:12;45.07;;;18.60;;
8466;SDS011;4270;48.148;11.648;2022-12-18T01:50:41;39.20;;;17.77;;
8466;SDS011;4270;48.148;11.648;2022-12-18T01:55:35;45.40;;;18.87;;
8466;SDS011;4270;48.148;11.648;2022-12-18T01:58:01;41.37;;;16.60;;
8466;SDS011;4270;48.148;11.648;2022-12-18T02:00:26;46.97;;;17.77;;
8466;SDS011;4270;48.148;11.648;2022-12-18T02:02:52;37.60;;;18.00;;
8466;SDS011;4270;48.148;11.648;2022-12-18T02:05:19;45.00;;;18.40;;
8466;SDS011;4270;48.148;11.648;2022-12-18T02:10:29;49.57;;;19.40;;
8466;SDS011;4270;48.148;11.648;2022-12-18T02:18:07;42.10;;;18.27;;
8466;SDS011;4270;48.148;11.648;2022-12-18T02:20:41;49.80;;;18.27;;
8466;SDS011;4270;48.148;11.648;2022-12-18T02:28:36;42.07;;;18.93;;
8466;SDS011;4270;48.148;11.648;2022-12-18T02:31:04;48.20;;;18.33;;
8466;SDS011;4270;48.148;11.648;2022-12-18T02:33:31;51.07;;;19.10;;
8466;SDS011;4270;48.148;11.648;2022-12-18T02:35:58;40.57;;;18.03;;
8466;SDS011;4270;48.148;11.648;2022-12-18T02:38:25;46.33;;;17.80;;
8466;SDS011;4270;48.148;11.648;2022-12-18T02:40:50;42.67;;;17.63;;
8466;SDS011;4270;48.148;11.648;2022-12-18T02:43:17;46.10;;;17.30;;
8466;SDS011;4270;48.148;11.648;2022-12-18T02:45:53;38.70;;;16.20;;
8466;SDS011;4270;48.148;11.648;2022-12-18T02:48:20;50.33;;;19.30;;
8466;SDS011;4270;48.148;11.648;2022-12-18T02:51:03;43.23;;;17.67;;
8466;SDS011;4270;48.148;11.648;2022-12-18T02:56:05;49.67;;;18.23;;
8466;SDS011;4270;48.148;11.648;2022-12-18T03:01:18;38.43;;;16.40;;
8466;SDS011;4270;48.148;11.648;2022-12-18T03:03:47;46.07;;;17.60;;
8466;SDS011;4270;48.148;11.648;2022-12-18T03:06:17;36.13;;;16.90;;
8466;SDS011;4270;48.148;11.648;2022-12-18T03:08:46;45.53;;;18.77;;
8466;SDS011;4270;48.148;11.648;2022-12-18T03:11:13;41.17;;;17.83;;
8466;SDS011;4270;48.148;11.648;2022-12-18T03:13:51;47.50;;;17.60;;
8466;SDS011;4270;48.148;11.648;2022-12-18T03:16:20;40.53;;;16.37;;
8466;SDS011;4270;48.148;11.648;2022-12-18T03:18:51;45.83;;;18.87;;
8466;SDS011;4270;48.148;11.648;2022-12-18T03:21:19;44.57;;;18.53;;
8466;SDS011;4270;48.148;11.648;2022-12-18T03:23:47;35.90;;;15.97;;
8466;SDS011;4270;48.148;11.648;2022-12-18T03:26:14;43.93;;;17.50;;
8466;SDS011;4270;48.148;11.648;2022-12-18T03:28:42;39.77;;;17.33;;
8466;SDS011;4270;48.148;11.648;2022-12-18T03:31:09;47.10;;;18.63;;
8466;SDS011;4270;48.148;11.648;2022-12-18T03:33:38;33.10;;;14.87;;
8466;SDS011;4270;48.148;11.648;2022-12-18T03:36:04;40.00;;;15.70;;
8466;SDS011;4270;48.148;11.648;2022-12-18T03:38:30;43.17;;;16.30;;
8466;SDS011;4270;48.148;11.648;2022-12-18T03:43:25;36.92;;;15.65;;
8466;SDS011;4270;48.148;11.648;2022-12-18T03:46:02;47.97;;;18.70;;
8466;SDS011;4270;48.148;11.648;2022-12-18T03:48:31;39.37;;;16.77;;
8466;SDS011;4270;48.148;11.648;2022-12-18T03:50:59;39.77;;;15.70;;
8466;SDS011;4270;48.148;11.648;2022-12-18T03:55:54;44.07;;;17.07;;
8466;SDS011;4270;48.148;11.648;2022-12-18T03:58:21;41.63;;;15.43;;
8466;SDS011;4270;48.148;11.648;2022-12-18T04:00:48;42.63;;;16.53;;
8466;SDS011;4270;48.148;11.648;2022-12-18T04:03:15;46.47;;;17.07;;
8466;SDS011;4270;48.148;11.648;2022-12-18T04:05:41;46.33;;;18.03;;
8466;SDS011;4270;48.148;11.648;2022-12-18T04:08:07;46.57;;;18.17;;
8466;SDS011;4270;48.148;11.648;2022-12-18T04:10:32;41.03;;;16.00;;
8466;SDS011;4270;48.148;11.648;2022-12-18T04:12:57;35.60;;;15.30;;
8466;SDS011;4270;48.148;11.648;2022-12-18T04:15:23;39.90;;;15.97;;
8466;SDS011;4270;48.148;11.648;2022-12-18T04:17:48;36.33;;;15.90;;
8466;SDS011;4270;48.148;11.648;2022-12-18T04:20:14;35.83;;;15.43;;
8466;SDS011;4270;48.148;11.648;2022-12-18T04:22:39;39.57;;;15.23;;
8466;SDS011;4270;48.148;11.648;2022-12-18T04:25:04;39.47;;;15.00;;
8466;SDS011;4270;48.148;11.648;2022-12-18T04:27:30;46.63;;;16.53;;
8466;SDS011;4270;48.148;11.648;2022-12-18T04:29:55;39.93;;;15.93;;
8466;SDS011;4270;48.148;11.648;2022-12-18T04:32:20;39.33;;;15.70;;
8466;SDS011;4270;48.148;11.648;2022-12-18T04:34:45;39.40;;;15.87;;
8466;SDS011;4270;48.148;11.648;2022-12-18T04:37:10;40.30;;;16.00;;
8466;SDS011;4270;48.148;11.648;2022-12-18T04:39:36;47.20;;;16.27;;
8466;SDS011;4270;48.148;11.648;2022-12-18T04:42:01;41.70;;;16.20;;
8466;SDS011;4270;48.148;11.648;2022-12-18T04:44:26;42.20;;;15.47;;
8466;SDS011;4270;48.148;11.648;2022-12-18T04:46:51;44.10;;;16.70;;
8466;SDS011;4270;48.148;11.648;2022-12-18T04:49:16;38.10;;;15.80;;
8466;SDS011;4270;48.148;11.648;2022-12-18T04:51:42;42.53;;;15.70;;
8466;SDS011;4270;48.148;11.648;2022-12-18T04:54:07;40.97;;;16.53;;
8466;SDS011;4270;48.148;11.648;2022-12-18T04:56:32;35.70;;;14.30;;
8466;SDS011;4270;48.148;11.648;2022-12-18T04:58:57;43.90;;;16.03;;
8466;SDS011;4270;48.148;11.648;2022-12-18T05:01:22;41.17;;;15.40;;
8466;SDS011;4270;48.148;11.648;2022-12-18T05:03:48;35.10;;;14.60;;
8466;SDS011;4270;48.148;11.648;2022-12-18T05:06:13;35.17;;;13.80;;
8466;SDS011;4270;48.148;11.648;2022-12-18T05:08:38;37.97;;;15.13;;
8466;SDS011;4270;48.148;11.648;2022-12-18T05:11:21;36.33;;;16.57;;
8466;SDS011;4270;48.148;11.648;2022-12-18T05:13:46;38.43;;;15.27;;
8466;SDS011;4270;48.148;11.648;2022-12-18T05:16:12;41.70;;;15.60;;
8466;SDS011;4270;48.148;11.648;2022-12-18T05:18:38;36.17;;;15.97;;
8466;SDS011;4270;48.148;11.648;2022-12-18T05:21:03;40.17;;;15.03;;
8466;SDS011;4270;48.148;11.648;2022-12-18T05:23:29;37.10;;;15.63;;
8466;SDS011;4270;48.148;11.648;2022-12-18T05:25:55;39.13;;;15.10;;
8466;SDS011;4270;48.148;11.648;2022-12-18T05:28:20;40.90;;;16.60;;
8466;SDS011;4270;48.148;11.648;2022-12-18T05:30:53;33.77;;;15.23;;
8466;SDS011;4270;48.148;11.648;2022-12-18T05:33:18;30.83;;;14.23;;
8466;SDS011;4270;48.148;11.648;2022-12-18T05:35:44;40.43;;;16.70;;
8466;SDS011;4270;48.148;11.648;2022-12-18T05:38:09;39.67;;;16.47;;
8466;SDS011;4270;48.148;11.648;2022-12-18T05:40:34;36.23;;;15.47;;
8466;SDS011;4270;48.148;11.648;2022-12-18T05:43:00;41.43;;;16.57;;
8466;SDS011;4270;48.148;11.648;2022-12-18T05:45:25;38.70;;;16.13;;
8466;SDS011;4270;48.148;11.648;2022-12-18T05:47:50;37.90;;;15.43;;
8466;SDS011;4270;48.148;11.648;2022-12-18T05:50:15;35.83;;;16.33;;
8466;SDS011;4270;48.148;11.648;2022-12-18T05:52:40;32.10;;;14.03;;
8466;SDS011;4270;48.148;11.648;2022-12-18T05:55:05;38.27;;;15.50;;
8466;SDS011;4270;48.148;11.648;2022-12-18T05:57:31;42.80;;;15.37;;
8466;SDS011;4270;48.148;11.648;2022-12-18T05:59:56;33.67;;;14.43;;
8466;SDS011;4270;48.148;11.648;2022-12-18T06:02:21;38.17;;;15.33;;
8466;SDS011;4270;48.148;11.648;2022-12-18T06:04:46;40.00;;;15.17;;
8466;SDS011;4270;48.148;11.648;2022-12-18T06:07:11;43.33;;;16.07;;
8466;SDS011;4270;48.148;11.648;2022-12-18T06:09:37;38.57;;;15.13;;
8466;SDS011;4270;48.148;11.648;2022-12-18T06:12:02;37.33;;;14.80;;
8466;SDS011;4270;48.148;11.648;2022-12-18T06:14:27;28.03;;;13.33;;
8466;SDS011;4270;48.148;11.648;2022-12-18T06:16:52;36.23;;;15.57;;
8466;SDS011;4270;48.148;11.648;2022-12-18T06:19:18;39.70;;;16.07;;
8466;SDS011;4270;48.148;11.648;2022-12-18T06:21:43;36.83;;;15.17;;
8466;SDS011;4270;48.148;11.648;2022-12-18T06:24:08;37.33;;;14.37;;
8466;SDS011;4270;48.148;11.648;2022-12-18T06:26:33;38.40;;;14.77;;
8466;SDS011;4270;48.148;11.648;2022-12-18T06:28:59;36.80;;;13.93;;
8466;SDS011;4270;48.148;11.648;2022-12-18T06:31:24;32.70;;;14.00;;
8466;SDS011;4270;48.148;11.648;2022-12-18T06:33:49;34.23;;;14.43;;
8466;SDS011;4270;48.148;11.648;2022-12-18T06:36:14;34.80;;;14.23;;
8466;SDS011;4270;48.148;11.648;2022-12-18T06:38:41;27.90;;;11.47;;
8466;SDS011;4270;48.148;11.648;2022-12-18T06:41:10;35.53;;;13.80;;
8466;SDS011;4270;48.148;11.648;2022-12-18T06:43:36;33.77;;;14.50;;
8466;SDS011;4270;48.148;11.648;2022-12-18T06:46:02;30.80;;;13.27;;
8466;SDS011;4270;48.148;11.648;2022-12-18T06:48:28;31.90;;;14.90;;
8466;SDS011;4270;48.148;11.648;2022-12-18T06:50:53;30.17;;;12.77;;
8466;SDS011;4270;48.148;11.648;2022-12-18T06:53:19;36.97;;;16.40;;
8466;SDS011;4270;48.148;11.648;2022-12-18T06:55:44;31.10;;;13.07;;
8466;SDS011;4270;48.148;11.648;2022-12-18T06:58:09;30.90;;;14.53;;
8466;SDS011;4270;48.148;11.648;2022-12-18T07:00:34;29.53;;;13.33;;
8466;SDS011;4270;48.148;11.648;2022-12-18T07:02:59;39.77;;;13.80;;
8466;SDS011;4270;48.148;11.648;2022-12-18T07:05:24;33.50;;;13.00;;
8466;SDS011;4270;48.148;11.648;2022-12-18T07:07:50;32.97;;;14.20;;
8466;SDS011;4270;48.148;11.648;2022-12-18T07:10:15;33.90;;;15.90;;
8466;SDS011;4270;48.148;11.648;2022-12-18T07:12:40;30.63;;;12.60;;
8466;SDS011;4270;48.148;11.648;2022-12-18T07:15:06;33.33;;;14.30;;
8466;SDS011;4270;48.148;11.648;2022-12-18T07:17:31;30.70;;;12.77;;
8466;SDS011;4270;48.148;11.648;2022-12-18T07:19:56;28.77;;;12.60;;
8466;SDS011;4270;48.148;11.648;2022-12-18T07:22:22;29.37;;;14.70;;
8466;SDS011;4270;48.148;11.648;2022-12-18T07:24:47;28.57;;;14.77;;
8466;SDS011;4270;48.148;11.648;2022-12-18T07:27:13;38.60;;;14.70;;
8466;SDS011;4270;48.148;11.648;2022-12-18T07:29:38;33.90;;;12.67;;
8466;SDS011;4270;48.148;11.648;2022-12-18T07:32:03;31.27;;;13.67;;
8466;SDS011;4270;48.148;11.648;2022-12-18T07:34:28;34.70;;;15.27;;
8466;SDS011;4270;48.148;11.648;2022-12-18T07:36:53;29.63;;;13.93;;
8466;SDS011;4270;48.148;11.648;2022-12-18T07:39:19;31.03;;;13.80;;
8466;SDS011;4270;48.148;11.648;2022-12-18T07:41:44;30.27;;;13.00;;
8466;SDS011;4270;48.148;11.648;2022-12-18T07:44:29;33.30;;;12.97;;
8466;SDS011;4270;48.148;11.648;2022-12-18T07:46:54;30.50;;;13.30;;
8466;SDS011;4270;48.148;11.648;2022-12-18T07:49:19;25.93;;;13.27;;
8466;SDS011;4270;48.148;11.648;2022-12-18T07:51:44;34.97;;;14.60;;
8466;SDS011;4270;48.148;11.648;2022-12-18T07:54:13;36.10;;;15.40;;
8466;SDS011;4270;48.148;11.648;2022-12-18T07:56:39;30.20;;;13.23;;
8466;SDS011;4270;48.148;11.648;2022-12-18T07:59:04;33.23;;;13.13;;
8466;SDS011;4270;48.148;11.648;2022-12-18T08:01:29;33.20;;;15.17;;
8466;SDS011;4270;48.148;11.648;2022-12-18T08:03:55;38.00;;;13.10;;
8466;SDS011;4270;48.148;11.648;2022-12-18T08:06:20;36.30;;;14.40;;
8466;SDS011;4270;48.148;11.648;2022-12-18T08:08:45;35.40;;;14.30;;
8466;SDS011;4270;48.148;11.648;2022-12-18T08:11:11;32.63;;;12.73;;
8466;SDS011;4270;48.148;11.648;2022-12-18T08:13:36;32.20;;;14.03;;
8466;SDS011;4270;48.148;11.648;2022-12-18T08:16:02;38.20;;;13.87;;
8466;SDS011;4270;48.148;11.648;2022-12-18T08:18:28;26.87;;;13.00;;
8466;SDS011;4270;48.148;11.648;2022-12-18T08:20:54;35.10;;;15.30;;
8466;SDS011;4270;48.148;11.648;2022-12-18T08:23:19;31.03;;;12.40;;
8466;SDS011;4270;48.148;11.648;2022-12-18T08:25:44;31.17;;;14.10;;
8466;SDS011;4270;48.148;11.648;2022-12-18T08:28:09;32.50;;;14.30;;
8466;SDS011;4270;48.148;11.648;2022-12-18T08:30:35;36.63;;;15.33;;
8466;SDS011;4270;48.148;11.648;2022-12-18T08:33:00;34.57;;;14.30;;
8466;SDS011;4270;48.148;11.648;2022-12-18T08:35:25;29.10;;;13.40;;
8466;SDS011;4270;48.148;11.648;2022-12-18T08:37:50;37.13;;;14.60;;
8466;SDS011;4270;48.148;11.648;2022-12-18T08:40:16;29.63;;;13.00;;
8466;SDS011;4270;48.148;11.648;2022-12-18T08:42:41;27.37;;;12.60;;
8466;SDS011;4270;48.148;11.648;2022-12-18T08:45:25;28.30;;;12.70;;
8466;SDS011;4270;48.148;11.648;2022-12-18T08:47:51;30.10;;;13.90;;
8466;SDS011;4270;48.148;11.648;2022-12-18T08:50:16;26.50;;;12.90;;
8466;SDS011;4270;48.148;11.648;2022-12-18T08:52:41;34.90;;;14.07;;
8466;SDS011;4270;48.148;11.648;2022-12-18T08:55:07;35.67;;;14.33;;
8466;SDS011;4270;48.148;11.648;2022-12-18T08:57:32;31.97;;;12.70;;
8466;SDS011;4270;48.148;11.648;2022-12-18T08:59:57;27.53;;;12.90;;
8466;SDS011;4270;48.148;11.648;2022-12-18T09:02:22;33.37;;;13.67;;
8466;SDS011;4270;48.148;11.648;2022-12-18T09:04:48;26.20;;;13.33;;
8466;SDS011;4270;48.148;11.648;2022-12-18T09:07:13;31.27;;;13.17;;
8466;SDS011;4270;48.148;11.648;2022-12-18T09:09:38;31.77;;;12.80;;
8466;SDS011;4270;48.148;11.648;2022-12-18T09:12:03;30.70;;;13.47;;
8466;SDS011;4270;48.148;11.648;2022-12-18T09:14:28;32.00;;;13.30;;
8466;SDS011;4270;48.148;11.648;2022-12-18T09:16:54;28.60;;;14.13;;
8466;SDS011;4270;48.148;11.648;2022-12-18T09:19:19;36.03;;;14.70;;
8466;SDS011;4270;48.148;11.648;2022-12-18T09:21:44;30.63;;;12.70;;
8466;SDS011;4270;48.148;11.648;2022-12-18T09:24:11;32.80;;;14.53;;
8466;SDS011;4270;48.148;11.648;2022-12-18T09:26:37;33.07;;;12.93;;
8466;SDS011;4270;48.148;11.648;2022-12-18T09:29:02;26.87;;;13.40;;
8466;SDS011;4270;48.148;11.648;2022-12-18T09:31:27;28.17;;;13.10;;
8466;SDS011;4270;48.148;11.648;2022-12-18T09:33:54;27.70;;;11.80;;
8466;SDS011;4270;48.148;11.648;2022-12-18T09:36:19;36.87;;;14.57;;
8466;SDS011;4270;48.148;11.648;2022-12-18T09:38:44;31.93;;;13.20;;
8466;SDS011;4270;48.148;11.648;2022-12-18T09:43:51;29.23;;;11.03;;
8466;SDS011;4270;48.148;11.648;2022-12-18T09:46:19;29.63;;;12.20;;
8466;SDS011;4270;48.148;11.648;2022-12-18T09:48:46;30.93;;;14.37;;
8466;SDS011;4270;48.148;11.648;2022-12-18T09:51:17;25.53;;;11.23;;
8466;SDS011;4270;48.148;11.648;2022-12-18T09:53:44;26.20;;;12.13;;
8466;SDS011;4270;48.148;11.648;2022-12-18T09:56:12;29.97;;;12.30;;
8466;SDS011;4270;48.148;11.648;2022-12-18T09:58:41;30.73;;;13.47;;
8466;SDS011;4270;48.148;11.648;2022-12-18T10:01:16;33.00;;;14.27;;
8466;SDS011;4270;48.148;11.648;2022-12-18T10:03:43;31.67;;;14.80;;
8466;SDS011;4270;48.148;11.648;2022-12-18T10:08:41;29.77;;;12.07;;
8466;SDS011;4270;48.148;11.648;2022-12-18T10:16:12;27.67;;;12.63;;
8466;SDS011;4270;48.148;11.648;2022-12-18T10:21:20;28.03;;;13.00;;
8466;SDS011;4270;48.148;11.648;2022-12-18T10:24:02;28.87;;;12.93;;
8466;SDS011;4270;48.148;11.648;2022-12-18T10:26:33;31.40;;;13.10;;
8466;SDS011;4270;48.148;11.648;2022-12-18T10:28:58;27.30;;;12.57;;
8466;SDS011;4270;48.148;11.648;2022-12-18T10:31:24;24.90;;;12.30;;
8466;SDS011;4270;48.148;11.648;2022-12-18T10:33:49;31.60;;;13.17;;
8466;SDS011;4270;48.148;11.648;2022-12-18T10:36:15;28.77;;;13.43;;
8466;SDS011;4270;48.148;11.648;2022-12-18T10:38:40;29.20;;;13.20;;
8466;SDS011;4270;48.148;11.648;2022-12-18T10:41:06;28.47;;;12.40;;
8466;SDS011;4270;48.148;11.648;2022-12-18T10:43:37;25.33;;;13.20;;
8466;SDS011;4270;48.148;11.648;2022-12-18T10:48:27;31.33;;;14.23;;
8466;SDS011;4270;48.148;11.648;2022-12-18T10:50:53;24.10;;;10.70;;
8466;SDS011;4270;48.148;11.648;2022-12-18T10:53:39;26.73;;;11.77;;
8466;SDS011;4270;48.148;11.648;2022-12-18T10:56:06;25.67;;;12.20;;
8466;SDS011;4270;48.148;11.648;2022-12-18T10:58:33;25.67;;;12.07;;
8466;SDS011;4270;48.148;11.648;2022-12-18T11:03:28;29.83;;;12.00;;
8466;SDS011;4270;48.148;11.648;2022-12-18T11:06:01;22.63;;;11.00;;
8466;SDS011;4270;48.148;11.648;2022-12-18T11:08:27;26.10;;;11.97;;
8466;SDS011;4270;48.148;11.648;2022-12-18T11:10:52;22.73;;;11.60;;
8466;SDS011;4270;48.148;11.648;2022-12-18T11:13:18;23.50;;;10.67;;
8466;SDS011;4270;48.148;11.648;2022-12-18T11:15:44;27.77;;;12.30;;
8466;SDS011;4270;48.148;11.648;2022-12-18T11:18:16;29.63;;;12.57;;
8466;SDS011;4270;48.148;11.648;2022-12-18T11:20:42;23.40;;;11.20;;
8466;SDS011;4270;48.148;11.648;2022-12-18T11:23:11;23.70;;;11.47;;
8466;SDS011;4270;48.148;11.648;2022-12-18T11:25:38;27.17;;;11.80;;
8466;SDS011;4270;48.148;11.648;2022-12-18T11:28:05;28.10;;;12.57;;
8466;SDS011;4270;48.148;11.648;2022-12-18T11:30:32;24.30;;;11.57;;
8466;SDS011;4270;48.148;11.648;2022-12-18T11:37:58;29.73;;;13.10;;
8466;SDS011;4270;48.148;11.648;2022-12-18T11:40:37;26.47;;;11.00;;
8466;SDS011;4270;48.148;11.648;2022-12-18T11:45:41;23.60;;;10.77;;
8466;SDS011;4270;48.148;11.648;2022-12-18T11:51:00;22.07;;;11.80;;
8466;SDS011;4270;48.148;11.648;2022-12-18T11:53:25;28.50;;;12.57;;
8466;SDS011;4270;48.148;11.648;2022-12-18T11:56:11;25.10;;;10.60;;
8466;SDS011;4270;48.148;11.648;2022-12-18T11:58:45;20.17;;;10.63;;
8466;SDS011;4270;48.148;11.648;2022-12-18T12:06:45;30.85;;;11.80;;
8466;SDS011;4270;48.148;11.648;2022-12-18T12:11:41;23.03;;;10.80;;
8466;SDS011;4270;48.148;11.648;2022-12-18T12:16:37;22.00;;;11.07;;
8466;SDS011;4270;48.148;11.648;2022-12-18T12:27:05;23.07;;;11.47;;
8466;SDS011;4270;48.148;11.648;2022-12-18T12:32:12;26.80;;;11.90;;
8466;SDS011;4270;48.148;11.648;2022-12-18T12:35:02;26.83;;;11.57;;
8466;SDS011;4270;48.148;11.648;2022-12-18T12:40:05;27.23;;;12.20;;
8466;SDS011;4270;48.148;11.648;2022-12-18T12:42:44;23.17;;;11.50;;
8466;SDS011;4270;48.148;11.648;2022-12-18T12:45:41;24.07;;;11.40;;
8466;SDS011;4270;48.148;11.648;2022-12-18T12:48:11;27.27;;;12.40;;
8466;SDS011;4270;48.148;11.648;2022-12-18T12:50:38;27.27;;;11.13;;
8466;SDS011;4270;48.148;11.648;2022-12-18T12:53:06;24.43;;;11.57;;
8466;SDS011;4270;48.148;11.648;2022-12-18T12:55:32;28.23;;;12.40;;
8466;SDS011;4270;48.148;11.648;2022-12-18T12:58:05;28.67;;;11.57;;
8466;SDS011;4270;48.148;11.648;2022-12-18T13:00:44;22.73;;;11.30;;
8466;SDS011;4270;48.148;11.648;2022-12-18T13:05:43;29.43;;;11.57;;
8466;SDS011;4270;48.148;11.648;2022-12-18T13:08:11;24.23;;;11.50;;
8466;SDS011;4270;48.148;11.648;2022-12-18T13:10:40;25.30;;;12.33;;
8466;SDS011;4270;48.148;11.648;2022-12-18T13:13:10;21.77;;;11.83;;
8466;SDS011;4270;48.148;11.648;2022-12-18T13:15:43;23.03;;;10.90;;
8466;SDS011;4270;48.148;11.648;2022-12-18T13:25:46;23.33;;;10.63;;
8466;SDS011;4270;48.148;11.648;2022-12-18T13:28:15;27.80;;;11.93;;
8466;SDS011;4270;48.148;11.648;2022-12-18T13:35:42;27.60;;;11.03;;
8466;SDS011;4270;48.148;11.648;2022-12-18T13:38:22;25.63;;;12.87;;
8466;SDS011;4270;48.148;11.648;2022-12-18T13:45:45;31.83;;;12.93;;
8466;SDS011;4270;48.148;11.648;2022-12-18T13:48:14;33.17;;;11.73;;
8466;SDS011;4270;48.148;11.648;2022-12-18T13:50:40;23.93;;;12.27;;
8466;SDS011;4270;48.148;11.648;2022-12-18T13:53:05;25.00;;;12.27;;
8466;SDS011;4270;48.148;11.648;2022-12-18T13:55:31;25.97;;;13.00;;
8466;SDS011;4270;48.148;11.648;2022-12-18T13:58:03;37.87;;;14.30;;
8466;SDS011;4270;48.148;11.648;2022-12-18T14:00:29;25.20;;;11.83;;
8466;SDS011;4270;48.148;11.648;2022-12-18T14:02:55;24.60;;;12.17;;
8466;SDS011;4270;48.148;11.648;2022-12-18T14:05:27;31.33;;;13.20;;
8466;SDS011;4270;48.148;11.648;2022-12-18T14:07:53;26.17;;;11.50;;
8466;SDS011;4270;48.148;11.648;2022-12-18T14:10:19;26.10;;;11.90;;
8466;SDS011;4270;48.148;11.648;2022-12-18T14:12:46;19.30;;;10.70;;
8466;SDS011;4270;48.148;11.648;2022-12-18T14:17:50;18.83;;;10.60;;
8466;SDS011;4270;48.148;11.648;2022-12-18T14:20:15;31.03;;;11.83;;
8466;SDS011;4270;48.148;11.648;2022-12-18T14:22:45;24.90;;;11.83;;
8466;SDS011;4270;48.148;11.648;2022-12-18T14:25:21;26.17;;;12.07;;
8466;SDS011;4270;48.148;11.648;2022-12-18T14:27:48;25.33;;;12.03;;
8466;SDS011;4270;48.148;11.648;2022-12-18T14:30:25;30.50;;;12.47;;
8466;SDS011;4270;48.148;11.648;2022-12-18T14:33:00;26.57;;;11.90;;
8466;SDS011;4270;48.148;11.648;2022-12-18T14:35:25;21.47;;;11.30;;
8466;SDS011;4270;48.148;11.648;2022-12-18T14:37:50;28.77;;;13.27;;
8466;SDS011;4270;48.148;11.648;2022-12-18T14:40:16;23.20;;;11.67;;
8466;SDS011;4270;48.148;11.648;2022-12-18T14:42:41;24.30;;;12.20;;
8466;SDS011;4270;48.148;11.648;2022-12-18T14:47:50;23.73;;;11.90;;
8466;SDS011;4270;48.148;11.648;2022-12-18T14:50:15;27.43;;;11.63;;
8466;SDS011;4270;48.148;11.648;2022-12-18T14:52:41;28.37;;;10.70;;
8466;SDS011;4270;48.148;11.648;2022-12-18T14:55:13;24.60;;;11.83;;
8466;SDS011;4270;48.148;11.648;2022-12-18T14:57:39;28.07;;;12.50;;
8466;SDS011;4270;48.148;11.648;2022-12-18T15:00:10;29.27;;;12.13;;
8466;SDS011;4270;48.148;11.648;2022-12-18T15:02:40;29.00;;;11.87;;
8466;SDS011;4270;48.148;11.648;2022-12-18T15:05:17;29.50;;;11.17;;
8466;SDS011;4270;48.148;11.648;2022-12-18T15:07:50;28.90;;;12.53;;
8466;SDS011;4270;48.148;11.648;2022-12-18T15:10:25;29.30;;;12.27;;
8466;SDS011;4270;48.148;11.648;2022-12-18T15:18:01;30.50;;;13.57;;
8466;SDS011;4270;48.148;11.648;2022-12-18T15:20:27;29.90;;;12.37;;
8466;SDS011;4270;48.148;11.648;2022-12-18T15:22:53;25.93;;;12.70;;
8466;SDS011;4270;48.148;11.648;2022-12-18T15:25:27;28.17;;;12.07;;
8466;SDS011;4270;48.148;11.648;2022-12-18T15:27:53;28.90;;;12.17;;
8466;SDS011;4270;48.148;11.648;2022-12-18T15:30:20;30.10;;;13.73;;
8466;SDS011;4270;48.148;11.648;2022-12-18T15:32:45;28.13;;;12.23;;
8466;SDS011;4270;48.148;11.648;2022-12-18T15:37:39;24.92;;;11.32;;
8466;SDS011;4270;48.148;11.648;2022-12-18T15:40:04;30.73;;;13.93;;
8466;SDS011;4270;48.148;11.648;2022-12-18T15:42:29;25.70;;;11.53;;
8466;SDS011;4270;48.148;11.648;2022-12-18T15:45:13;30.23;;;13.97;;
8466;SDS011;4270;48.148;11.648;2022-12-18T15:47:39;27.13;;;13.20;;
8466;SDS011;4270;48.148;11.648;2022-12-18T15:50:04;26.73;;;12.37;;
8466;SDS011;4270;48.148;11.648;2022-12-18T15:52:30;34.73;;;14.77;;
8466;SDS011;4270;48.148;11.648;2022-12-18T15:54:56;33.77;;;13.30;;
8466;SDS011;4270;48.148;11.648;2022-12-18T15:57:40;24.03;;;11.87;;
8466;SDS011;4270;48.148;11.648;2022-12-18T16:00:05;28.20;;;12.30;;
8466;SDS011;4270;48.148;11.648;2022-12-18T16:02:30;24.63;;;12.40;;
8466;SDS011;4270;48.148;11.648;2022-12-18T16:04:55;33.53;;;14.40;;
8466;SDS011;4270;48.148;11.648;2022-12-18T16:07:21;34.87;;;14.67;;
8466;SDS011;4270;48.148;11.648;2022-12-18T16:09:46;28.47;;;12.97;;
8466;SDS011;4270;48.148;11.648;2022-12-18T16:12:14;29.00;;;13.50;;
8466;SDS011;4270;48.148;11.648;2022-12-18T16:14:40;28.20;;;13.80;;
8466;SDS011;4270;48.148;11.648;2022-12-18T16:17:08;33.23;;;12.57;;
8466;SDS011;4270;48.148;11.648;2022-12-18T16:19:33;33.83;;;15.43;;
8466;SDS011;4270;48.148;11.648;2022-12-18T16:21:59;32.87;;;12.87;;
8466;SDS011;4270;48.148;11.648;2022-12-18T16:24:25;31.03;;;13.87;;
8466;SDS011;4270;48.148;11.648;2022-12-18T16:26:51;29.27;;;12.50;;